Grimes, Alabama
Current Conditions -  °F | °C
As of 6:53 PM on Saturday 22 Nov 2014 (Local Time) from KDHN Reporting Station
Overcast Overcast  
Wind Chill: 59°   Ceiling: 800
Heat Index: 59°   Visibility: 10mi
Dew Point: 57°   Wind: 12mph
Humidity: 93%   Direction: 80°E
Pressure: 30.18"   Gusts: NA
Location:  31.2035°N, 85.4998°W
Report Text: KDHN 230053Z 08010KT 10SM OVC008 15/14 A3018 RMK AO2 SLP218 T01500139
Loading
Personal Weather Stations






























Interactive Weather Map New forecast layout! Learn more

10-Day Weather Forecast

Advertisements
Track Severe Weather on mobile